sensor_id;sensor_type;location;lat;lon;timestamp;pressure;altitude;pressure_sealevel;temperature;humidity
45731;BME280;31440;48.584;13.460;2023-04-27T00:02:10;96956.50;;;4.46;100.00
45731;BME280;31440;48.584;13.460;2023-04-27T00:05:15;96957.31;;;4.52;100.00
45731;BME280;31440;48.584;13.460;2023-04-27T00:11:26;96946.75;;;4.77;100.00
45731;BME280;31440;48.584;13.460;2023-04-27T00:14:30;96938.47;;;4.52;100.00
45731;BME280;31440;48.584;13.460;2023-04-27T00:17:35;96933.16;;;4.69;100.00
45731;BME280;31440;48.584;13.460;2023-04-27T00:20:40;96938.88;;;4.95;100.00
45731;BME280;31440;48.584;13.460;2023-04-27T00:23:46;96890.59;;;4.39;100.00
45731;BME280;31440;48.584;13.460;2023-04-27T00:29:57;96927.84;;;4.84;100.00
45731;BME280;31440;48.584;13.460;2023-04-27T00:33:01;96929.06;;;4.49;100.00
45731;BME280;31440;48.584;13.460;2023-04-27T00:36:06;96933.31;;;4.53;100.00
45731;BME280;31440;48.584;13.460;2023-04-27T00:39:11;96931.31;;;5.50;100.00
45731;BME280;31440;48.584;13.460;2023-04-27T00:42:16;96940.06;;;4.62;100.00
45731;BME280;31440;48.584;13.460;2023-04-27T00:45:23;96940.94;;;4.59;100.00
45731;BME280;31440;48.584;13.460;2023-04-27T00:48:29;96900.00;;;4.40;100.00
45731;BME280;31440;48.584;13.460;2023-04-27T00:51:34;96934.03;;;4.66;100.00
45731;BME280;31440;48.584;13.460;2023-04-27T00:54:39;96925.81;;;4.31;100.00
45731;BME280;31440;48.584;13.460;2023-04-27T00:57:43;96928.00;;;4.69;100.00
45731;BME280;31440;48.584;13.460;2023-04-27T01:00:48;96932.38;;;5.37;100.00
45731;BME280;31440;48.584;13.460;2023-04-27T01:03:53;96934.84;;;4.70;100.00
45731;BME280;31440;48.584;13.460;2023-04-27T01:06:59;96940.69;;;4.88;100.00
45731;BME280;31440;48.584;13.460;2023-04-27T01:10:08;96940.06;;;4.62;100.00
45731;BME280;31440;48.584;13.460;2023-04-27T01:13:12;96934.03;;;4.65;100.00
45731;BME280;31440;48.584;13.460;2023-04-27T01:16:17;96922.91;;;4.63;100.00
45731;BME280;31440;48.584;13.460;2023-04-27T01:19:22;96935.44;;;4.96;100.00
45731;BME280;31440;48.584;13.460;2023-04-27T01:22:27;96934.09;;;4.58;100.00
45731;BME280;31440;48.584;13.460;2023-04-27T01:25:31;96923.91;;;4.48;100.00
45731;BME280;31440;48.584;13.460;2023-04-27T01:31:45;96940.34;;;4.32;100.00
45731;BME280;31440;48.584;13.460;2023-04-27T01:34:49;96941.09;;;4.41;100.00
45731;BME280;31440;48.584;13.460;2023-04-27T01:37:55;96936.81;;;4.42;100.00
45731;BME280;31440;48.584;13.460;2023-04-27T01:41:03;96940.19;;;4.50;100.00
45731;BME280;31440;48.584;13.460;2023-04-27T01:44:07;96948.66;;;4.56;100.00
45731;BME280;31440;48.584;13.460;2023-04-27T01:47:14;96949.75;;;4.34;100.00
45731;BME280;31440;48.584;13.460;2023-04-27T01:50:19;96944.47;;;4.49;100.00
45731;BME280;31440;48.584;13.460;2023-04-27T01:53:24;96953.78;;;4.59;100.00
45731;BME280;31440;48.584;13.460;2023-04-27T01:56:29;96901.00;;;4.23;100.00
45731;BME280;31440;48.584;13.460;2023-04-27T01:59:34;96955.53;;;4.57;100.00
45731;BME280;31440;48.584;13.460;2023-04-27T02:02:38;96950.31;;;4.67;100.00
45731;BME280;31440;48.584;13.460;2023-04-27T02:05:44;96954.63;;;4.62;100.00
45731;BME280;31440;48.584;13.460;2023-04-27T02:08:49;96949.59;;;4.54;100.00
45731;BME280;31440;48.584;13.460;2023-04-27T02:11:54;96959.91;;;4.48;100.00
45731;BME280;31440;48.584;13.460;2023-04-27T02:14:58;96959.25;;;4.24;100.00
45731;BME280;31440;48.584;13.460;2023-04-27T02:18:03;96961.06;;;4.12;100.00
45731;BME280;31440;48.584;13.460;2023-04-27T02:21:08;96957.63;;;4.14;100.00
45731;BME280;31440;48.584;13.460;2023-04-27T02:24:13;96956.75;;;4.18;100.00
45731;BME280;31440;48.584;13.460;2023-04-27T02:27:18;96966.19;;;4.13;100.00
45731;BME280;31440;48.584;13.460;2023-04-27T02:30:23;96956.50;;;4.44;100.00
45731;BME280;31440;48.584;13.460;2023-04-27T02:33:30;96920.00;;;4.09;100.00
45731;BME280;31440;48.584;13.460;2023-04-27T02:36:35;96953.94;;;4.46;100.00
45731;BME280;31440;48.584;13.460;2023-04-27T02:39:39;96946.41;;;4.23;100.00
45731;BME280;31440;48.584;13.460;2023-04-27T02:42:44;96946.34;;;4.31;100.00
45731;BME280;31440;48.584;13.460;2023-04-27T02:45:50;96914.63;;;4.36;100.00
45731;BME280;31440;48.584;13.460;2023-04-27T02:48:55;96945.06;;;4.74;100.00
45731;BME280;31440;48.584;13.460;2023-04-27T02:52:00;96949.63;;;4.48;100.00
45731;BME280;31440;48.584;13.460;2023-04-27T02:55:04;96953.81;;;4.58;100.00
45731;BME280;31440;48.584;13.460;2023-04-27T02:58:09;96946.69;;;4.84;100.00
45731;BME280;31440;48.584;13.460;2023-04-27T03:01:14;96951.56;;;4.23;100.00
45731;BME280;31440;48.584;13.460;2023-04-27T03:04:21;96923.34;;;4.18;100.00
45731;BME280;31440;48.584;13.460;2023-04-27T03:07:26;96953.50;;;4.91;100.00
45731;BME280;31440;48.584;13.460;2023-04-27T03:10:31;96956.81;;;5.01;100.00
45731;BME280;31440;48.584;13.460;2023-04-27T03:13:35;96959.44;;;4.97;100.00
45731;BME280;31440;48.584;13.460;2023-04-27T03:16:45;96955.25;;;4.86;100.00
45731;BME280;31440;48.584;13.460;2023-04-27T03:19:50;96946.38;;;5.13;100.00
45731;BME280;31440;48.584;13.460;2023-04-27T03:22:54;96952.22;;;4.43;100.00
45731;BME280;31440;48.584;13.460;2023-04-27T03:25:59;96957.47;;;4.34;100.00
45731;BME280;31440;48.584;13.460;2023-04-27T03:29:04;96961.59;;;4.50;100.00
45731;BME280;31440;48.584;13.460;2023-04-27T03:32:09;96966.09;;;4.26;100.00
45731;BME280;31440;48.584;13.460;2023-04-27T03:35:14;96964.16;;;4.53;100.00
45731;BME280;31440;48.584;13.460;2023-04-27T03:38:19;96953.88;;;4.53;100.00
45731;BME280;31440;48.584;13.460;2023-04-27T03:41:23;96966.06;;;4.32;100.00
45731;BME280;31440;48.584;13.460;2023-04-27T03:44:29;96934.66;;;3.98;100.00
45731;BME280;31440;48.584;13.460;2023-04-27T03:47:40;96933.94;;;4.74;100.00
45731;BME280;31440;48.584;13.460;2023-04-27T03:50:45;96962.69;;;5.11;100.00
45731;BME280;31440;48.584;13.460;2023-04-27T03:53:50;96973.09;;;5.03;100.00
45731;BME280;31440;48.584;13.460;2023-04-27T03:56:55;96979.41;;;4.70;100.00
45731;BME280;31440;48.584;13.460;2023-04-27T04:00:00;96985.19;;;4.95;100.00
45731;BME280;31440;48.584;13.460;2023-04-27T04:03:05;96977.84;;;5.37;100.00
45731;BME280;31440;48.584;13.460;2023-04-27T04:06:10;96980.06;;;4.93;100.00
45731;BME280;31440;48.584;13.460;2023-04-27T04:09:15;96977.34;;;5.09;100.00
45731;BME280;31440;48.584;13.460;2023-04-27T04:12:20;96974.88;;;4.95;100.00
45731;BME280;31440;48.584;13.460;2023-04-27T04:15:24;96986.19;;;4.79;100.00
45731;BME280;31440;48.584;13.460;2023-04-27T04:18:30;96960.47;;;4.76;100.00
45731;BME280;31440;48.584;13.460;2023-04-27T04:21:35;96993.72;;;4.99;100.00
45731;BME280;31440;48.584;13.460;2023-04-27T04:24:39;96986.22;;;4.74;100.00
45731;BME280;31440;48.584;13.460;2023-04-27T04:27:44;96989.56;;;4.88;100.00
45731;BME280;31440;48.584;13.460;2023-04-27T04:30:48;96989.25;;;5.14;100.00
45731;BME280;31440;48.584;13.460;2023-04-27T04:33:53;96996.69;;;5.40;100.00
45731;BME280;31440;48.584;13.460;2023-04-27T04:36:58;97004.16;;;4.83;100.00
45731;BME280;31440;48.584;13.460;2023-04-27T04:43:12;97017.84;;;4.84;100.00
45731;BME280;31440;48.584;13.460;2023-04-27T04:46:18;97020.28;;;5.01;100.00
45731;BME280;31440;48.584;13.460;2023-04-27T04:49:23;97021.09;;;5.09;100.00
45731;BME280;31440;48.584;13.460;2023-04-27T04:52:28;97021.84;;;5.17;100.00
45731;BME280;31440;48.584;13.460;2023-04-27T04:55:32;97026.59;;;5.52;100.00
45731;BME280;31440;48.584;13.460;2023-04-27T04:58:38;97021.00;;;5.85;100.00
45731;BME280;31440;48.584;13.460;2023-04-27T05:01:43;97027.97;;;5.79;100.00
45731;BME280;31440;48.584;13.460;2023-04-27T05:04:47;97033.25;;;5.68;100.00
45731;BME280;31440;48.584;13.460;2023-04-27T05:07:52;97037.66;;;6.21;100.00
45731;BME280;31440;48.584;13.460;2023-04-27T05:10:57;97036.38;;;6.51;100.00
45731;BME280;31440;48.584;13.460;2023-04-27T05:14:01;97044.81;;;6.01;100.00
45731;BME280;31440;48.584;13.460;2023-04-27T05:17:06;97049.25;;;5.93;100.00
45731;BME280;31440;48.584;13.460;2023-04-27T05:20:12;97005.03;;;5.60;100.00
45731;BME280;31440;48.584;13.460;2023-04-27T05:23:17;97042.13;;;6.12;100.00
45731;BME280;31440;48.584;13.460;2023-04-27T05:26:21;97048.88;;;6.19;100.00
45731;BME280;31440;48.584;13.460;2023-04-27T05:29:26;97044.03;;;6.54;100.00
45731;BME280;31440;48.584;13.460;2023-04-27T05:32:30;97049.25;;;6.51;100.00
45731;BME280;31440;48.584;13.460;2023-04-27T05:35:37;97052.63;;;6.55;100.00
45731;BME280;31440;48.584;13.460;2023-04-27T05:38:41;97046.25;;;6.77;100.00
45731;BME280;31440;48.584;13.460;2023-04-27T05:41:46;97050.47;;;6.81;100.00
45731;BME280;31440;48.584;13.460;2023-04-27T05:44:51;97046.09;;;6.88;100.00
45731;BME280;31440;48.584;13.460;2023-04-27T05:47:55;97053.22;;;7.21;100.00
45731;BME280;31440;48.584;13.460;2023-04-27T05:51:01;97055.88;;;7.17;100.00
45731;BME280;31440;48.584;13.460;2023-04-27T05:54:07;97052.00;;;7.85;100.00
45731;BME280;31440;48.584;13.460;2023-04-27T05:57:11;97055.84;;;8.08;99.91
45731;BME280;31440;48.584;13.460;2023-04-27T06:00:16;97047.69;;;7.84;96.89
45731;BME280;31440;48.584;13.460;2023-04-27T06:03:21;97050.78;;;8.01;99.53
45731;BME280;31440;48.584;13.460;2023-04-27T06:09:32;97016.94;;;7.72;98.97
45731;BME280;31440;48.584;13.460;2023-04-27T06:12:37;97048.72;;;8.17;98.11
45731;BME280;31440;48.584;13.460;2023-04-27T06:15:42;97036.59;;;7.79;100.00
45731;BME280;31440;48.584;13.460;2023-04-27T06:18:49;97046.59;;;8.34;98.16
45731;BME280;31440;48.584;13.460;2023-04-27T06:21:54;97046.78;;;8.64;94.38
45731;BME280;31440;48.584;13.460;2023-04-27T06:24:59;97049.44;;;8.96;90.54
45731;BME280;31440;48.584;13.460;2023-04-27T06:28:04;97037.13;;;9.04;93.56
45731;BME280;31440;48.584;13.460;2023-04-27T06:31:09;97051.19;;;8.94;92.63
45731;BME280;31440;48.584;13.460;2023-04-27T06:34:13;97052.66;;;9.04;91.87
45731;BME280;31440;48.584;13.460;2023-04-27T06:37:18;97049.44;;;8.61;92.41
45731;BME280;31440;48.584;13.460;2023-04-27T06:40:23;97056.13;;;9.39;87.74
45731;BME280;31440;48.584;13.460;2023-04-27T06:43:28;97058.19;;;9.57;78.90
45731;BME280;31440;48.584;13.460;2023-04-27T06:46:33;97056.91;;;9.41;86.98
45731;BME280;31440;48.584;13.460;2023-04-27T06:49:38;97062.81;;;9.77;77.83
45731;BME280;31440;48.584;13.460;2023-04-27T06:52:44;97034.63;;;9.66;76.79
45731;BME280;31440;48.584;13.460;2023-04-27T06:55:49;97065.28;;;10.11;77.75
45731;BME280;31440;48.584;13.460;2023-04-27T06:58:54;97067.56;;;10.49;71.73
45731;BME280;31440;48.584;13.460;2023-04-27T07:01:59;97064.19;;;11.02;67.65
45731;BME280;31440;48.584;13.460;2023-04-27T07:05:04;97063.94;;;11.36;66.75
45731;BME280;31440;48.584;13.460;2023-04-27T07:08:09;97071.22;;;11.00;71.62
45731;BME280;31440;48.584;13.460;2023-04-27T07:11:13;97074.19;;;10.88;69.22
45731;BME280;31440;48.584;13.460;2023-04-27T07:17:25;97067.63;;;11.29;64.41
45731;BME280;31440;48.584;13.460;2023-04-27T07:20:29;97065.91;;;11.03;58.41
45731;BME280;31440;48.584;13.460;2023-04-27T07:23:34;97066.13;;;11.22;58.32
45731;BME280;31440;48.584;13.460;2023-04-27T07:26:39;97069.25;;;11.56;58.55
45731;BME280;31440;48.584;13.460;2023-04-27T07:29:44;97074.47;;;11.31;58.79
45731;BME280;31440;48.584;13.460;2023-04-27T07:32:49;97068.00;;;11.68;58.50
45731;BME280;31440;48.584;13.460;2023-04-27T07:35:58;97073.50;;;11.09;59.05
45731;BME280;31440;48.584;13.460;2023-04-27T07:42:09;97068.00;;;10.92;60.57
45731;BME280;31440;48.584;13.460;2023-04-27T07:45:14;97060.31;;;11.40;58.81
45731;BME280;31440;48.584;13.460;2023-04-27T07:48:20;97076.88;;;12.09;58.00
45731;BME280;31440;48.584;13.460;2023-04-27T07:51:26;97078.78;;;11.06;60.33
45731;BME280;31440;48.584;13.460;2023-04-27T07:54:32;97074.78;;;12.20;56.63
45731;BME280;31440;48.584;13.460;2023-04-27T08:00:43;97069.75;;;12.14;60.40
45731;BME280;31440;48.584;13.460;2023-04-27T08:03:47;97066.75;;;12.70;56.54
45731;BME280;31440;48.584;13.460;2023-04-27T08:06:52;97060.81;;;13.30;56.15
45731;BME280;31440;48.584;13.460;2023-04-27T08:09:58;97066.13;;;12.63;54.61
45731;BME280;31440;48.584;13.460;2023-04-27T08:13:02;97075.25;;;11.83;52.53
45731;BME280;31440;48.584;13.460;2023-04-27T08:16:07;97073.97;;;12.41;50.79
45731;BME280;31440;48.584;13.460;2023-04-27T08:19:13;97022.19;;;12.55;47.43
45731;BME280;31440;48.584;13.460;2023-04-27T08:22:18;97072.88;;;12.69;47.65
45731;BME280;31440;48.584;13.460;2023-04-27T08:25:23;97062.28;;;13.15;46.83
45731;BME280;31440;48.584;13.460;2023-04-27T08:28:28;97075.25;;;12.75;45.03
45731;BME280;31440;48.584;13.460;2023-04-27T08:31:33;97062.56;;;14.28;44.64
45731;BME280;31440;48.584;13.460;2023-04-27T08:34:37;97075.47;;;13.12;45.38
45731;BME280;31440;48.584;13.460;2023-04-27T08:37:43;97030.78;;;13.81;44.01
45731;BME280;31440;48.584;13.460;2023-04-27T08:40:48;97077.47;;;13.06;44.89
45731;BME280;31440;48.584;13.460;2023-04-27T08:43:52;97072.22;;;14.07;43.46
45731;BME280;31440;48.584;13.460;2023-04-27T08:46:57;97067.66;;;14.31;44.23
45731;BME280;31440;48.584;13.460;2023-04-27T08:50:02;97067.50;;;15.77;41.80
45731;BME280;31440;48.584;13.460;2023-04-27T08:53:18;97063.56;;;16.50;43.35
45731;BME280;31440;48.584;13.460;2023-04-27T08:56:25;97048.97;;;15.64;42.80
45731;BME280;31440;48.584;13.460;2023-04-27T08:59:30;97066.19;;;15.33;46.03
45731;BME280;31440;48.584;13.460;2023-04-27T09:02:36;97058.53;;;15.98;40.42
45731;BME280;31440;48.584;13.460;2023-04-27T09:05:45;97067.50;;;15.08;40.18
45731;BME280;31440;48.584;13.460;2023-04-27T09:09:07;97060.25;;;15.82;38.44
45731;BME280;31440;48.584;13.460;2023-04-27T09:12:16;97059.81;;;16.22;39.96
45731;BME280;31440;48.584;13.460;2023-04-27T09:18:27;97054.72;;;16.04;38.23
45731;BME280;31440;48.584;13.460;2023-04-27T09:21:32;97046.91;;;16.19;38.33
45731;BME280;31440;48.584;13.460;2023-04-27T09:24:37;97046.69;;;16.71;39.63
45731;BME280;31440;48.584;13.460;2023-04-27T09:27:42;97041.59;;;16.52;36.75
45731;BME280;31440;48.584;13.460;2023-04-27T09:30:54;97044.78;;;17.34;36.06
45731;BME280;31440;48.584;13.460;2023-04-27T09:34:00;97039.19;;;18.54;36.62
45731;BME280;31440;48.584;13.460;2023-04-27T09:37:05;97036.38;;;16.68;35.05
45731;BME280;31440;48.584;13.460;2023-04-27T09:40:10;97033.00;;;17.42;34.11
45731;BME280;31440;48.584;13.460;2023-04-27T09:43:15;97034.44;;;16.72;35.35
45731;BME280;31440;48.584;13.460;2023-04-27T09:46:21;97029.03;;;18.07;34.16
45731;BME280;31440;48.584;13.460;2023-04-27T09:49:27;97018.91;;;19.10;34.46
45731;BME280;31440;48.584;13.460;2023-04-27T09:52:34;97021.72;;;17.25;31.48
45731;BME280;31440;48.584;13.460;2023-04-27T10:02:14;97025.19;;;17.70;30.08
45731;BME280;31440;48.584;13.460;2023-04-27T10:05:49;97011.84;;;18.01;31.38
45731;BME280;31440;48.584;13.460;2023-04-27T10:09:03;97021.41;;;18.31;30.15
45731;BME280;31440;48.584;13.460;2023-04-27T10:15:25;97018.84;;;18.43;30.78
45731;BME280;31440;48.584;13.460;2023-04-27T10:18:31;97019.84;;;17.71;30.22
45731;BME280;31440;48.584;13.460;2023-04-27T10:21:35;97018.75;;;18.45;30.71
45731;BME280;31440;48.584;13.460;2023-04-27T10:24:41;96999.19;;;18.90;28.42
45731;BME280;31440;48.584;13.460;2023-04-27T10:27:54;97015.97;;;18.05;34.18
45731;BME280;31440;48.584;13.460;2023-04-27T10:31:08;97012.03;;;18.27;31.71
45731;BME280;31440;48.584;13.460;2023-04-27T10:34:16;97016.31;;;17.57;30.04
45731;BME280;31440;48.584;13.460;2023-04-27T10:37:37;97014.81;;;17.09;31.00
45731;BME280;31440;48.584;13.460;2023-04-27T10:40:57;97007.50;;;18.97;30.90
45731;BME280;31440;48.584;13.460;2023-04-27T10:44:15;97008.28;;;18.02;29.78
45731;BME280;31440;48.584;13.460;2023-04-27T10:50:27;97006.94;;;17.53;32.16
45731;BME280;31440;48.584;13.460;2023-04-27T10:53:33;97013.19;;;17.36;31.13
45731;BME280;31440;48.584;13.460;2023-04-27T10:56:39;97009.06;;;16.72;32.97
45731;BME280;31440;48.584;13.460;2023-04-27T10:59:51;96991.97;;;18.53;31.07
45731;BME280;31440;48.584;13.460;2023-04-27T11:03:09;96996.59;;;18.35;33.53
45731;BME280;31440;48.584;13.460;2023-04-27T11:06:15;97005.31;;;16.60;30.91
45731;BME280;31440;48.584;13.460;2023-04-27T11:09:26;96999.88;;;17.97;30.11
45731;BME280;31440;48.584;13.460;2023-04-27T11:12:31;96991.53;;;18.46;31.32
45731;BME280;31440;48.584;13.460;2023-04-27T11:15:50;97002.97;;;17.76;31.22
45731;BME280;31440;48.584;13.460;2023-04-27T11:18:55;96993.41;;;18.85;29.98
45731;BME280;31440;48.584;13.460;2023-04-27T11:22:04;96986.38;;;19.76;31.38
45731;BME280;31440;48.584;13.460;2023-04-27T11:25:09;96984.22;;;19.30;29.60
45731;BME280;31440;48.584;13.460;2023-04-27T11:28:18;96991.00;;;19.85;30.27
45731;BME280;31440;48.584;13.460;2023-04-27T11:31:23;96982.06;;;20.50;30.26
45731;BME280;31440;48.584;13.460;2023-04-27T11:34:27;96980.59;;;20.33;27.89
45731;BME280;31440;48.584;13.460;2023-04-27T11:37:37;96976.59;;;22.58;29.63
45731;BME280;31440;48.584;13.460;2023-04-27T11:40:42;96976.72;;;22.34;28.61
45731;BME280;31440;48.584;13.460;2023-04-27T11:43:46;96971.31;;;23.43;26.31
45731;BME280;31440;48.584;13.460;2023-04-27T11:46:54;96981.13;;;20.86;28.27
45731;BME280;31440;48.584;13.460;2023-04-27T11:53:05;96982.19;;;23.08;28.78
45731;BME280;31440;48.584;13.460;2023-04-27T11:56:09;96981.31;;;23.81;28.23
45731;BME280;31440;48.584;13.460;2023-04-27T11:59:21;96980.63;;;22.73;28.56
45731;BME280;31440;48.584;13.460;2023-04-27T12:02:28;96964.09;;;22.60;25.81
45731;BME280;31440;48.584;13.460;2023-04-27T12:05:34;96940.19;;;23.86;26.26
45731;BME280;31440;48.584;13.460;2023-04-27T12:08:39;96982.41;;;21.96;25.22
45731;BME280;31440;48.584;13.460;2023-04-27T12:11:44;96985.56;;;23.10;26.17
45731;BME280;31440;48.584;13.460;2023-04-27T12:14:50;96973.44;;;20.35;29.67
45731;BME280;31440;48.584;13.460;2023-04-27T12:17:55;96978.38;;;23.33;25.47
45731;BME280;31440;48.584;13.460;2023-04-27T12:20:59;96973.03;;;23.74;24.71
45731;BME280;31440;48.584;13.460;2023-04-27T12:24:09;96958.19;;;23.00;26.54
45731;BME280;31440;48.584;13.460;2023-04-27T12:27:14;96974.47;;;23.57;25.50
45731;BME280;31440;48.584;13.460;2023-04-27T12:30:19;96980.66;;;22.51;24.64
45731;BME280;31440;48.584;13.460;2023-04-27T12:33:24;96986.81;;;22.95;24.64
45731;BME280;31440;48.584;13.460;2023-04-27T12:36:30;96974.78;;;24.15;28.03
45731;BME280;31440;48.584;13.460;2023-04-27T12:39:35;96972.94;;;23.02;25.95
45731;BME280;31440;48.584;13.460;2023-04-27T12:42:41;96942.13;;;20.78;25.32
45731;BME280;31440;48.584;13.460;2023-04-27T12:45:46;96968.50;;;22.48;26.14
45731;BME280;31440;48.584;13.460;2023-04-27T12:48:50;96969.06;;;22.20;25.68
45731;BME280;31440;48.584;13.460;2023-04-27T12:51:55;96979.09;;;20.89;26.18
45731;BME280;31440;48.584;13.460;2023-04-27T12:55:01;96964.97;;;21.14;25.13
45731;BME280;31440;48.584;13.460;2023-04-27T12:58:05;96971.88;;;21.39;26.38
45731;BME280;31440;48.584;13.460;2023-04-27T13:01:10;96979.94;;;19.80;26.92
45731;BME280;31440;48.584;13.460;2023-04-27T13:04:18;96969.81;;;20.72;25.21
45731;BME280;31440;48.584;13.460;2023-04-27T13:07:24;96977.00;;;20.34;27.04
45731;BME280;31440;48.584;13.460;2023-04-27T13:10:29;96967.69;;;20.77;25.71
45731;BME280;31440;48.584;13.460;2023-04-27T13:13:33;96972.03;;;20.90;26.60
45731;BME280;31440;48.584;13.460;2023-04-27T13:16:38;96973.09;;;19.65;28.01
45731;BME280;31440;48.584;13.460;2023-04-27T13:19:43;96975.38;;;20.80;24.95
45731;BME280;31440;48.584;13.460;2023-04-27T13:22:48;96969.47;;;21.58;25.14
45731;BME280;31440;48.584;13.460;2023-04-27T13:25:52;96982.00;;;20.13;27.23
45731;BME280;31440;48.584;13.460;2023-04-27T13:28:57;96973.69;;;20.79;25.85
45731;BME280;31440;48.584;13.460;2023-04-27T13:32:01;96963.19;;;22.05;25.92
45731;BME280;31440;48.584;13.460;2023-04-27T13:35:07;96954.28;;;22.29;27.44
45731;BME280;31440;48.584;13.460;2023-04-27T13:38:12;96965.09;;;20.41;26.55
45731;BME280;31440;48.584;13.460;2023-04-27T13:41:17;96956.53;;;23.40;25.62
45731;BME280;31440;48.584;13.460;2023-04-27T13:44:21;96958.69;;;21.50;25.78
45731;BME280;31440;48.584;13.460;2023-04-27T13:47:26;96949.91;;;21.38;26.28
45731;BME280;31440;48.584;13.460;2023-04-27T13:50:33;96947.97;;;23.57;26.25
45731;BME280;31440;48.584;13.460;2023-04-27T13:53:37;96952.91;;;23.41;25.33
45731;BME280;31440;48.584;13.460;2023-04-27T13:56:42;96964.94;;;21.49;26.80
45731;BME280;31440;48.584;13.460;2023-04-27T13:59:46;96963.47;;;20.75;26.93
45731;BME280;31440;48.584;13.460;2023-04-27T14:02:51;96962.13;;;18.81;28.97
45731;BME280;31440;48.584;13.460;2023-04-27T14:09:01;96958.00;;;23.12;26.99
45731;BME280;31440;48.584;13.460;2023-04-27T14:12:05;96956.16;;;23.45;24.69
45731;BME280;31440;48.584;13.460;2023-04-27T14:15:11;96961.84;;;20.85;26.39
45731;BME280;31440;48.584;13.460;2023-04-27T14:18:17;96954.38;;;20.55;26.14
45731;BME280;31440;48.584;13.460;2023-04-27T14:21:21;96960.59;;;21.37;26.97
45731;BME280;31440;48.584;13.460;2023-04-27T14:24:27;96949.00;;;21.84;26.37
45731;BME280;31440;48.584;13.460;2023-04-27T14:27:31;96956.94;;;21.84;24.43
45731;BME280;31440;48.584;13.460;2023-04-27T14:30:36;96954.66;;;21.91;24.70
45731;BME280;31440;48.584;13.460;2023-04-27T14:33:41;96957.97;;;21.59;25.38
45731;BME280;31440;48.584;13.460;2023-04-27T14:39:51;96958.22;;;22.45;24.40
45731;BME280;31440;48.584;13.460;2023-04-27T14:42:55;96951.09;;;20.52;26.41
45731;BME280;31440;48.584;13.460;2023-04-27T14:46:01;96952.78;;;20.16;27.36
45731;BME280;31440;48.584;13.460;2023-04-27T14:49:23;96961.38;;;21.15;27.08
45731;BME280;31440;48.584;13.460;2023-04-27T14:52:28;96959.91;;;21.57;27.44
45731;BME280;31440;48.584;13.460;2023-04-27T14:55:33;96959.00;;;20.64;27.07
45731;BME280;31440;48.584;13.460;2023-04-27T14:58:37;96965.59;;;20.70;27.91
45731;BME280;31440;48.584;13.460;2023-04-27T15:01:42;96956.28;;;20.77;27.10
45731;BME280;31440;48.584;13.460;2023-04-27T15:04:46;96950.38;;;21.43;28.69
45731;BME280;31440;48.584;13.460;2023-04-27T15:07:51;96955.25;;;22.16;28.24
45731;BME280;31440;48.584;13.460;2023-04-27T15:10:55;96945.41;;;21.85;28.15
45731;BME280;31440;48.584;13.460;2023-04-27T15:17:09;96949.53;;;20.73;29.14
45731;BME280;31440;48.584;13.460;2023-04-27T15:20:13;96946.69;;;21.00;27.89
45731;BME280;31440;48.584;13.460;2023-04-27T15:23:19;96945.09;;;22.55;26.13
45731;BME280;31440;48.584;13.460;2023-04-27T15:26:25;96941.50;;;22.34;25.28
45731;BME280;31440;48.584;13.460;2023-04-27T15:29:30;96941.84;;;21.29;26.78
45731;BME280;31440;48.584;13.460;2023-04-27T15:32:36;96911.84;;;21.41;26.89
45731;BME280;31440;48.584;13.460;2023-04-27T15:35:41;96937.34;;;20.48;30.55
45731;BME280;31440;48.584;13.460;2023-04-27T15:38:46;96937.91;;;20.99;28.65
45731;BME280;31440;48.584;13.460;2023-04-27T15:41:50;96943.03;;;19.04;28.93
45731;BME280;31440;48.584;13.460;2023-04-27T15:44:55;96933.81;;;21.30;28.70
45731;BME280;31440;48.584;13.460;2023-04-27T15:48:00;96934.31;;;21.46;27.88
45731;BME280;31440;48.584;13.460;2023-04-27T15:51:05;96941.72;;;21.19;26.31
45731;BME280;31440;48.584;13.460;2023-04-27T15:54:13;96934.13;;;20.79;27.04
45731;BME280;31440;48.584;13.460;2023-04-27T15:57:18;96940.25;;;20.91;27.34
45731;BME280;31440;48.584;13.460;2023-04-27T16:00:25;96933.78;;;20.36;30.29
45731;BME280;31440;48.584;13.460;2023-04-27T16:03:30;96928.47;;;20.12;27.98
45731;BME280;31440;48.584;13.460;2023-04-27T16:06:36;96937.69;;;19.31;29.64
45731;BME280;31440;48.584;13.460;2023-04-27T16:09:41;96944.19;;;19.25;29.81
45731;BME280;31440;48.584;13.460;2023-04-27T16:12:46;96929.50;;;19.61;27.85
45731;BME280;31440;48.584;13.460;2023-04-27T16:15:51;96931.84;;;19.40;30.37
45731;BME280;31440;48.584;13.460;2023-04-27T16:18:56;96939.59;;;18.23;29.00
45731;BME280;31440;48.584;13.460;2023-04-27T16:22:01;96926.63;;;19.26;29.31
45731;BME280;31440;48.584;13.460;2023-04-27T16:25:07;96927.06;;;19.32;29.97
45731;BME280;31440;48.584;13.460;2023-04-27T16:28:15;96931.53;;;18.53;29.73
45731;BME280;31440;48.584;13.460;2023-04-27T16:31:21;96927.97;;;18.39;30.75
45731;BME280;31440;48.584;13.460;2023-04-27T16:34:26;96932.09;;;17.61;32.94
45731;BME280;31440;48.584;13.460;2023-04-27T16:37:31;96927.88;;;18.41;31.54
45731;BME280;31440;48.584;13.460;2023-04-27T16:40:36;96919.22;;;18.93;31.27
45731;BME280;31440;48.584;13.460;2023-04-27T16:43:40;96926.22;;;18.67;30.82
45731;BME280;31440;48.584;13.460;2023-04-27T16:46:45;96931.22;;;17.89;31.42
45731;BME280;31440;48.584;13.460;2023-04-27T16:49:49;96928.78;;;17.72;31.70
45731;BME280;31440;48.584;13.460;2023-04-27T16:53:03;96926.91;;;16.87;32.03
45731;BME280;31440;48.584;13.460;2023-04-27T16:56:07;96926.84;;;17.61;31.93
45731;BME280;31440;48.584;13.460;2023-04-27T16:59:13;96927.19;;;17.84;31.79
45731;BME280;31440;48.584;13.460;2023-04-27T17:02:18;96930.84;;;17.67;33.66
45731;BME280;31440;48.584;13.460;2023-04-27T17:05:29;96930.22;;;16.91;33.75